Wilmington, OH

11:37 AM EDT on October 02, 2014 (GMT -0400)
Country Manor | Change Station
CLOSE
Current Station
Personal Weather Station
Location: Wilmington, OH
Elevation: 1004 ft
Nearby Weather Stations

Elev 1004 ft 39.44 °N, 83.90 °W | Updated 9 seconds ago

Clear
Clear
76.1 °F
Feels Like 78 °F
N
7.0
Wind Variable Wind from SSW
Gusts 11.0 mph

Today
High -- | Low -- °F
--% Chance of Precip.
Yesterday
High -- | Low -- °F
Precip. -- in
7:32 AM 7:16 PM
First Quarter, 59% visible
Pressure 30.03 in
Visibility 10.0 miles
Clouds Clear
Heat Index 78 °F
Dew Point 62 °F
Humidity 62%
Rainfall 0.00 in
Snow Depth Not available.
UV 4 out of 12
Pollen 3.40 out of 12
Ozone Good
PM2.5 Good
Flu Activity Not available.
METAR KILN 021454Z AUTO 19010KT 10SM CLR 24/14 A3004 RMK AO2 SLP169 T02440144 58003

More Conditions Fewer Conditions

Pressure 30.03 in
Visibility 10.0 miles
Clouds Clear
Heat Index 78 °F
Dew Point 62 °F
Humidity 62%
Rainfall 0.00 in
Snow Depth Not available.
UV 4 out of 12
Pollen 3.40 out of 12
Ozone Good
PM2.5 Good
Flu Activity Not available.
METAR KILN 021454Z AUTO 19010KT 10SM CLR 24/14 A3004 RMK AO2 SLP169 T02440144 58003

More Conditions Fewer Conditions

10-Day Weather Forecast

Almanac

Astronomy

Oct. 02, 2014 Rise Set
Actual Time 7:32 AM EDT 7:16 PM EDT
Civil Twilight 7:05 AM EDT 7:43 PM EDT
Nautical Twilight 6:34 AM EDT 8:14 PM EDT
Astronomical Twilight 6:03 AM EDT 8:45 PM EDT
Moon 3:20 PM EDT 12:49 AM EDT
Length of Visible Light 12h 37m
Length of Day
11h 43m
Tomorrow will be 2m 34s shorter.
First Quarter, 59% of the Moon is Illuminated
Today
First Quarter
Oct 8
Full
Oct 15
Last Quarter
Oct 23
New
Oct 30
First Quarter

Today's Extremes

State Highs State Lows

Community

WunderPhotos

Upload Photos

1,758,276 photos uploaded!

WunderBlogs® & News

Nearby

Air Quality

  Air Quality AQ Index Pollutant
Yesterday Good
OZONE
Current Good
PM2.5
Current Good
OZONE
Thursday Moderate
PM2.5
Thursday Good
OZONE
Friday Good
PM2.5
Friday Good
OZONE
Saturday Good
PM2.5
Saturday Good
OZONE
Sunday Good
PM2.5
Sunday Good
OZONE

Snow Depth

Station Depth Elevation
No new snow has been reported.

Earthquake Activity

City Distance Mag. Time & Date
No recent earthquake activity has been reported nearby.
Minimum magnitude displayed is 2.5.

Coastal Water Temperatures

Place Temperature
No Stations Reporting

Nearby Weather Stations